Time;durP1;ratioP1;P1;durP2;ratioP2;P2;SDS_P1;SDS_P2;PMS_P1;PMS_P2;Temp;Humidity;BMP_temperature;BMP_pressure;BME280_temperature;BME280_humidity;BME280_pressure;Samples;Min_cycle;Max_cycle;Signal;HPM_P1;HPM_P2
2021/12/06 00:00:54;;;;;;;11.45;4.53;;;5.20;99.90;;;;;;5034041;28;20048;-54
2021/12/06 00:03:29;;;;;;;9.57;5.05;;;5.20;99.90;;;;;;5033886;28;20099;-51
2021/12/06 00:05:55;;;;;;;13.15;6.70;;;5.00;99.90;;;;;;5034363;28;20029;-53
2021/12/06 00:08:21;;;;;;;12.70;6.10;;;4.90;99.90;;;;;;5034431;28;20040;-56
2021/12/06 00:10:50;;;;;;;10.60;6.25;;;4.80;99.90;;;;;;5034388;28;20083;-55
2021/12/06 00:13:19;;;;;;;12.40;5.95;;;4.70;99.90;;;;;;5033814;28;20017;-52
2021/12/06 00:15:48;;;;;;;10.15;6.18;;;4.80;99.90;;;;;;5033402;28;20033;-54
2021/12/06 00:18:13;;;;;;;11.77;5.97;;;4.90;99.90;;;;;;5033785;28;20039;-53
2021/12/06 00:20:39;;;;;;;23.70;7.55;;;4.90;99.90;;;;;;5032816;28;20029;-52
2021/12/06 00:23:05;;;;;;;14.30;5.47;;;4.80;99.90;;;;;;5032692;28;20033;-52
2021/12/06 00:25:30;;;;;;;13.02;5.32;;;4.80;99.90;;;;;;5032705;28;20056;-52
2021/12/06 00:27:56;;;;;;;11.00;5.25;;;4.80;99.90;;;;;;5033551;28;20025;-53
2021/12/06 00:30:21;;;;;;;10.10;5.78;;;4.70;99.90;;;;;;5033566;28;20502;-53
2021/12/06 00:32:47;;;;;;;9.48;5.70;;;4.60;99.90;;;;;;5033106;28;20022;-53
2021/12/06 00:35:19;;;;;;;12.02;5.50;;;4.50;99.90;;;;;;5032539;28;20028;-53
2021/12/06 00:37:54;;;;;;;;;;;4.50;99.90;;;;;;5033509;28;20060;-54
2021/12/06 00:40:21;;;;;;;9.27;5.13;;;4.50;99.90;;;;;;5033523;28;19907;-52
2021/12/06 00:42:46;;;;;;;9.80;4.93;;;4.50;99.90;;;;;;5032182;28;20022;-51
2021/12/06 00:45:12;;;;;;;11.68;5.35;;;4.50;99.90;;;;;;5032419;28;20028;-50
2021/12/06 00:47:38;;;;;;;9.98;5.72;;;4.60;99.90;;;;;;5032948;28;20059;-52
2021/12/06 00:50:06;;;;;;;7.63;4.75;;;4.70;99.90;;;;;;5032602;28;20076;-51
2021/12/06 00:52:32;;;;;;;11.75;4.82;;;4.70;99.90;;;;;;5033205;28;20021;-50
2021/12/06 00:54:57;;;;;;;8.30;5.05;;;4.60;99.90;;;;;;5032042;28;20029;-50
2021/12/06 00:57:23;;;;;;;14.13;6.40;;;4.60;99.90;;;;;;5032839;28;20018;-51
2021/12/06 00:59:49;;;;;;;12.20;5.70;;;4.50;99.90;;;;;;5031880;28;20029;-49
2021/12/06 01:02:16;;;;;;;11.82;5.90;;;4.50;99.90;;;;;;5031922;28;20079;-53
2021/12/06 01:04:44;;;;;;;14.45;5.70;;;4.50;99.90;;;;;;5033176;28;20067;-49
2021/12/06 01:07:11;;;;;;;9.48;5.55;;;4.50;99.90;;;;;;5033130;28;20397;-51
2021/12/06 01:09:37;;;;;;;11.02;6.20;;;4.50;99.90;;;;;;5035458;28;20026;-49
2021/12/06 01:12:04;;;;;;;11.88;5.80;;;4.60;99.90;;;;;;5037783;28;20032;-49
2021/12/06 01:14:29;;;;;;;9.73;5.13;;;4.50;99.90;;;;;;5037137;28;20025;-54
2021/12/06 01:16:55;;;;;;;15.75;6.68;;;4.50;99.90;;;;;;5036293;28;20117;-52
2021/12/06 01:19:27;;;;;;;11.70;6.50;;;4.50;99.90;;;;;;5037106;28;20083;-52
2021/12/06 01:22:06;;;;;;;11.50;5.60;;;4.60;99.90;;;;;;5035891;28;20033;-53
2021/12/06 01:24:40;;;;;;;11.57;5.93;;;4.60;99.90;;;;;;5036951;28;20087;-52
2021/12/06 01:40:51;;;;;;;12.95;5.80;;;4.70;99.90;;;;;;5036774;28;20036;-52
2021/12/06 01:43:16;;;;;;;11.00;5.22;;;4.70;99.90;;;;;;5035380;28;20021;-51
2021/12/06 01:45:42;;;;;;;10.02;5.57;;;4.70;99.90;;;;;;5035749;28;20017;-54
2021/12/06 01:48:08;;;;;;;9.73;5.05;;;4.70;99.90;;;;;;5036784;28;20018;-52
2021/12/06 01:50:34;;;;;;;8.90;5.10;;;4.80;99.90;;;;;;5035642;28;20491;-50
2021/12/06 01:53:02;;;;;;;13.10;6.00;;;4.80;99.90;;;;;;5036511;28;20044;-51
2021/12/06 01:55:31;;;;;;;11.63;5.88;;;4.70;99.90;;;;;;5036487;28;20080;-52
2021/12/06 01:57:58;;;;;;;13.50;5.63;;;4.70;99.90;;;;;;5035504;28;20017;-49
2021/12/06 02:00:29;;;;;;;9.82;5.13;;;4.70;99.90;;;;;;5035961;28;20024;-49
2021/12/06 02:02:55;;;;;;;14.13;6.57;;;4.90;99.90;;;;;;5036264;28;20045;-52
2021/12/06 02:05:21;;;;;;;11.63;5.72;;;4.90;99.90;;;;;;5035071;28;20084;-51
2021/12/06 02:07:47;;;;;;;9.27;5.35;;;4.80;99.90;;;;;;5034981;28;20045;-50
2021/12/06 02:10:13;;;;;;;10.77;5.57;;;4.70;99.90;;;;;;5034807;28;20026;-53
2021/12/06 02:12:38;;;;;;;12.18;6.07;;;4.80;99.90;;;;;;5036627;28;20025;-52
2021/12/06 02:15:14;;;;;;;11.48;6.30;;;4.70;99.90;;;;;;5036104;28;20022;-51
2021/12/06 02:17:43;;;;;;;15.65;7.53;;;4.70;99.90;;;;;;5035118;28;20052;-56
2021/12/06 02:20:22;;;;;;;12.32;6.30;;;4.70;99.90;;;;;;5036244;28;20022;-52
2021/12/06 02:22:48;;;;;;;11.52;5.55;;;4.70;99.90;;;;;;5035856;28;20029;-50
2021/12/06 02:25:15;;;;;;;8.40;4.68;;;4.90;99.90;;;;;;5036964;28;20032;-54
2021/12/06 02:27:41;;;;;;;13.52;6.22;;;5.10;99.90;;;;;;5034609;28;20030;-52
2021/12/06 02:30:08;;;;;;;14.80;6.50;;;5.00;99.90;;;;;;5034756;28;20029;-52
2021/12/06 02:32:35;;;;;;;13.80;7.03;;;4.80;99.90;;;;;;5035686;28;20017;-49
2021/12/06 02:35:04;;;;;;;12.82;6.43;;;4.70;99.90;;;;;;5035699;28;20029;-53
2021/12/06 02:37:33;;;;;;;17.25;6.05;;;4.60;99.90;;;;;;5035725;28;20028;-50
2021/12/06 02:40:00;;;;;;;10.98;6.32;;;4.60;99.90;;;;;;5035666;28;20080;-50
2021/12/06 02:42:26;;;;;;;12.80;6.47;;;4.50;99.90;;;;;;5034629;28;20026;-54
2021/12/06 02:44:53;;;;;;;11.68;5.90;;;4.60;99.90;;;;;;5035573;28;20033;-49
2021/12/06 02:47:20;;;;;;;9.73;5.53;;;4.60;99.90;;;;;;5034236;28;20032;-55
2021/12/06 02:49:46;;;;;;;13.75;6.47;;;4.70;99.90;;;;;;5035369;28;20026;-53
2021/12/06 02:52:13;;;;;;;12.73;6.93;;;4.60;99.90;;;;;;5034085;28;20022;-54
2021/12/06 02:54:40;;;;;;;11.07;6.15;;;4.60;99.90;;;;;;5035282;28;20021;-52
2021/12/06 02:57:19;;;;;;;12.50;6.70;;;4.60;99.90;;;;;;5034032;28;20079;-51
2021/12/06 02:59:46;;;;;;;11.13;5.85;;;4.60;99.90;;;;;;5034870;28;20029;-52
2021/12/06 03:02:19;;;;;;;13.23;6.47;;;4.50;99.90;;;;;;5035495;28;20021;-51
2021/12/06 03:04:45;;;;;;;10.10;5.70;;;4.50;99.90;;;;;;5035219;28;20040;-54
2021/12/06 03:07:12;;;;;;;15.05;6.82;;;4.50;99.90;;;;;;5035154;28;20100;-55
2021/12/06 03:09:40;;;;;;;10.00;6.35;;;4.50;99.90;;;;;;5033769;28;20551;-53
2021/12/06 03:12:13;;;;;;;11.65;5.88;;;4.50;99.90;;;;;;5035060;28;20025;-52
2021/12/06 03:14:44;;;;;;;11.05;7.00;;;4.50;99.90;;;;;;5033807;28;20083;-54
2021/12/06 03:17:13;;;;;;;15.18;6.78;;;4.30;99.90;;;;;;5033982;28;20072;-54
2021/12/06 03:19:39;;;;;;;14.18;6.22;;;4.20;99.90;;;;;;5034983;28;20025;-52
2021/12/06 03:22:08;;;;;;;11.27;5.82;;;4.20;99.90;;;;;;5034871;28;20036;-53
2021/12/06 03:24:34;;;;;;;14.13;5.95;;;4.10;99.90;;;;;;5035571;28;20034;-54
2021/12/06 03:27:00;;;;;;;13.50;6.38;;;4.10;99.90;;;;;;5033493;28;20053;-52
2021/12/06 03:29:27;;;;;;;11.85;6.28;;;4.10;99.90;;;;;;5033994;28;20025;-49
2021/12/06 03:31:53;;;;;;;11.68;5.65;;;4.00;99.90;;;;;;5032905;28;20180;-53
2021/12/06 03:34:19;;;;;;;10.88;5.90;;;4.00;99.90;;;;;;5035538;28;20053;-52
2021/12/06 03:36:46;;;;;;;10.55;5.85;;;4.00;99.90;;;;;;5033400;28;20049;-52
2021/12/06 03:39:20;;;;;;;10.70;5.72;;;3.90;99.90;;;;;;5033279;28;20037;-50
2021/12/06 03:41:52;;;;;;;10.60;5.30;;;3.90;99.90;;;;;;5034509;28;20026;-52
2021/12/06 03:44:20;;;;;;;13.05;5.88;;;4.00;99.90;;;;;;5033127;28;20025;-51
2021/12/06 03:46:48;;;;;;;13.48;5.60;;;3.80;99.90;;;;;;5033166;28;20441;-51
2021/12/06 03:49:15;;;;;;;11.50;5.95;;;3.80;99.90;;;;;;5033314;28;20029;-53
2021/12/06 03:51:43;;;;;;;18.95;8.15;;;3.90;99.90;;;;;;5034288;28;20026;-49
2021/12/06 03:54:11;;;;;;;14.43;6.72;;;3.90;99.90;;;;;;5034170;28;20024;-50
2021/12/06 03:56:39;;;;;;;11.43;6.25;;;4.00;99.90;;;;;;5033738;28;20121;-49
2021/12/06 03:59:05;;;;;;;12.00;6.07;;;4.00;99.90;;;;;;5032933;28;20029;-50
2021/12/06 04:01:32;;;;;;;10.60;6.00;;;4.10;99.90;;;;;;5034432;28;20032;-49
2021/12/06 04:03:58;;;;;;;14.10;5.57;;;4.10;99.90;;;;;;5033843;28;20022;-51
2021/12/06 04:06:24;;;;;;;12.50;5.70;;;4.10;99.90;;;;;;5033989;28;20499;-50
2021/12/06 04:08:50;;;;;;;12.65;6.32;;;4.00;99.90;;;;;;5033979;28;20021;-49
2021/12/06 04:11:17;;;;;;;11.70;5.65;;;4.00;99.90;;;;;;5033975;28;20029;-49
2021/12/06 04:13:44;;;;;;;11.93;6.47;;;4.10;99.90;;;;;;5032600;28;20025;-53
2021/12/06 04:16:09;;;;;;;21.42;9.55;;;4.10;99.90;;;;;;5032615;28;20025;-50
2021/12/06 04:18:35;;;;;;;12.38;5.88;;;4.10;99.90;;;;;;5033797;28;20150;-51
2021/12/06 04:21:02;;;;;;;8.57;5.30;;;4.20;99.90;;;;;;5034053;28;20484;-49
2021/12/06 04:23:28;;;;;;;10.95;5.53;;;4.30;99.90;;;;;;5032548;28;20174;-49
2021/12/06 04:25:54;;;;;;;12.82;6.15;;;4.20;99.90;;;;;;5033515;28;20112;-50
2021/12/06 04:28:20;;;;;;;11.82;5.78;;;4.20;99.90;;;;;;5033899;28;20022;-50
2021/12/06 04:30:48;;;;;;;12.32;6.30;;;4.20;99.90;;;;;;5033647;28;20021;-49
2021/12/06 04:33:14;;;;;;;14.07;6.00;;;4.20;99.90;;;;;;5033622;28;20026;-50
2021/12/06 04:35:41;;;;;;;12.73;5.72;;;4.30;99.90;;;;;;5032349;28;20022;-51
2021/12/06 04:38:08;;;;;;;10.27;5.28;;;4.30;99.90;;;;;;5033553;28;20096;-50
2021/12/06 04:40:35;;;;;;;10.88;5.60;;;4.40;99.90;;;;;;5033453;28;20021;-50
2021/12/06 04:43:02;;;;;;;11.52;5.68;;;4.40;99.90;;;;;;5031596;28;20053;-49
2021/12/06 04:45:28;;;;;;;10.60;5.40;;;4.40;99.90;;;;;;5033664;28;20029;-50
2021/12/06 04:47:54;;;;;;;11.80;7.13;;;4.40;99.90;;;;;;5032114;28;20018;-49
2021/12/06 04:50:25;;;;;;;10.10;6.07;;;4.40;99.90;;;;;;5032047;28;20025;-52
2021/12/06 04:52:55;;;;;;;11.63;6.13;;;4.40;99.90;;;;;;5033369;28;20029;-52
2021/12/06 04:55:32;;;;;;;9.18;5.13;;;4.30;99.90;;;;;;5032645;28;20025;-52
2021/12/06 04:57:58;;;;;;;11.82;6.20;;;4.30;99.90;;;;;;5032666;28;20017;-49
2021/12/06 05:00:48;;;;;;;14.27;7.45;;;4.30;99.90;;;;;;5033556;28;20034;-52
2021/12/06 05:03:15;;;;;;;9.30;5.38;;;4.40;99.90;;;;;;5032592;28;20395;-53
2021/12/06 05:05:55;;;;;;;10.85;6.25;;;4.40;99.90;;;;;;5033213;28;20021;-51
2021/12/06 05:08:34;;;;;;;13.35;6.30;;;4.30;99.90;;;;;;5033479;28;20056;-51
2021/12/06 05:11:02;;;;;;;13.50;6.10;;;4.30;99.90;;;;;;5032794;28;20017;-49
2021/12/06 05:13:29;;;;;;;12.98;6.93;;;4.30;99.90;;;;;;5032170;28;20022;-50
2021/12/06 05:15:54;;;;;;;12.73;6.28;;;4.30;99.90;;;;;;5033102;28;20025;-50
2021/12/06 05:18:21;;;;;;;14.75;6.40;;;4.20;99.90;;;;;;5033144;28;20021;-51
2021/12/06 05:20:47;;;;;;;10.00;5.93;;;4.20;99.90;;;;;;5031794;28;20030;-54
2021/12/06 05:23:14;;;;;;;11.85;6.00;;;4.30;99.90;;;;;;5031619;28;20065;-54
2021/12/06 05:25:40;;;;;;;12.82;7.05;;;4.30;99.90;;;;;;5033059;28;20053;-55
2021/12/06 05:28:06;;;;;;;14.52;6.43;;;4.30;99.90;;;;;;5031942;28;20419;-54
2021/12/06 05:30:34;;;;;;;10.98;6.57;;;4.40;99.90;;;;;;5032858;28;20079;-50
2021/12/06 05:33:01;;;;;;;14.77;6.65;;;4.30;99.90;;;;;;5031967;28;20029;-54
2021/12/06 05:35:27;;;;;;;13.65;6.32;;;4.30;99.90;;;;;;5031710;28;20032;-50
2021/12/06 05:37:55;;;;;;;12.88;5.75;;;4.30;99.90;;;;;;5031637;28;20021;-53
2021/12/06 05:40:24;;;;;;;14.02;6.10;;;4.30;99.90;;;;;;5031677;28;20037;-55
2021/12/06 05:42:50;;;;;;;14.85;6.15;;;4.40;99.90;;;;;;5032047;28;20096;-51
2021/12/06 05:45:18;;;;;;;10.48;5.75;;;4.40;99.90;;;;;;5032815;28;20480;-53
2021/12/06 05:47:44;;;;;;;14.73;7.85;;;4.40;99.90;;;;;;5032819;28;20049;-51
2021/12/06 05:50:11;;;;;;;13.52;7.20;;;4.50;99.90;;;;;;5032712;28;20064;-54
2021/12/06 05:52:36;;;;;;;13.20;5.80;;;4.50;99.90;;;;;;5032905;28;20105;-52
2021/12/06 05:55:04;;;;;;;10.85;6.60;;;4.50;99.90;;;;;;5034164;28;20052;-54
2021/12/06 05:57:30;;;;;;;15.60;6.43;;;4.50;99.90;;;;;;5036506;28;20024;-53
2021/12/06 05:59:56;;;;;;;16.40;6.60;;;4.50;99.90;;;;;;5035266;28;20025;-49
2021/12/06 06:02:22;;;;;;;13.25;5.93;;;4.40;99.90;;;;;;5035971;28;20025;-50
2021/12/06 06:04:48;;;;;;;13.05;6.60;;;4.40;99.90;;;;;;5035156;28;20496;-49
2021/12/06 06:07:14;;;;;;;16.30;6.80;;;4.40;99.90;;;;;;5035168;28;20053;-52
2021/12/06 06:09:40;;;;;;;10.88;6.60;;;4.50;99.90;;;;;;5035812;28;20112;-50
2021/12/06 06:12:06;;;;;;;14.20;6.38;;;4.50;99.90;;;;;;5036461;28;20026;-52
2021/12/06 06:14:32;;;;;;;13.57;7.28;;;4.60;99.90;;;;;;5036071;28;20025;-49
2021/12/06 06:17:08;;;;;;;17.58;7.22;;;4.60;99.90;;;;;;5036156;28;20018;-53
2021/12/06 06:19:34;;;;;;;16.50;7.30;;;4.60;99.90;;;;;;5034790;28;20025;-50
2021/12/06 06:21:59;;;;;;;15.73;7.70;;;4.60;99.90;;;;;;5036493;28;20041;-49
2021/12/06 06:24:25;;;;;;;14.48;6.70;;;4.60;99.90;;;;;;5034544;28;20030;-52
2021/12/06 06:26:51;;;;;;;15.75;6.90;;;4.60;99.90;;;;;;5035907;28;20086;-54
2021/12/06 06:29:17;;;;;;;12.68;6.07;;;4.50;99.90;;;;;;5034565;28;20168;-55
2021/12/06 06:31:43;;;;;;;18.63;7.90;;;4.50;99.90;;;;;;5036133;28;20018;-52
2021/12/06 06:34:11;;;;;;;16.05;7.13;;;4.50;99.90;;;;;;5035798;28;20112;-53
2021/12/06 06:36:37;;;;;;;14.00;7.00;;;4.50;99.90;;;;;;5035765;28;20022;-52
2021/12/06 06:39:08;;;;;;;11.75;6.68;;;4.50;99.90;;;;;;5035741;28;20032;-50
2021/12/06 06:41:35;;;;;;;11.65;6.32;;;4.50;99.90;;;;;;5035874;28;20089;-49
2021/12/06 06:44:01;;;;;;;13.80;6.90;;;4.50;99.90;;;;;;5034304;28;20030;-53
2021/12/06 06:46:27;;;;;;;13.30;6.40;;;4.40;99.90;;;;;;5034350;28;20113;-50
2021/12/06 06:48:53;;;;;;;12.73;6.40;;;4.30;99.90;;;;;;5035746;28;20108;-50
2021/12/06 06:51:19;;;;;;;15.73;7.18;;;4.30;99.90;;;;;;5035486;28;20117;-49
2021/12/06 06:53:44;;;;;;;14.55;7.47;;;4.40;99.90;;;;;;5034542;28;20049;-53
2021/12/06 06:56:10;;;;;;;30.70;11.10;;;4.30;99.90;;;;;;5035412;28;20032;-50
2021/12/06 06:58:36;;;;;;;77.60;28.85;;;4.20;99.90;;;;;;5035374;28;20022;-55
2021/12/06 07:01:02;;;;;;;54.38;19.90;;;4.10;99.90;;;;;;5035282;28;20030;-49
2021/12/06 07:03:31;;;;;;;16.70;8.32;;;4.10;99.90;;;;;;5034373;28;20033;-51
2021/12/06 07:06:01;;;;;;;21.65;9.50;;;4.10;99.90;;;;;;5033317;28;20071;-52
2021/12/06 07:08:28;;;;;;;29.23;10.85;;;4.10;99.90;;;;;;5033810;28;20033;-51
2021/12/06 07:10:54;;;;;;;18.02;8.50;;;4.20;99.90;;;;;;5034204;28;20032;-53
2021/12/06 07:13:21;;;;;;;16.58;7.85;;;4.20;99.90;;;;;;5035022;28;20021;-51
2021/12/06 07:15:48;;;;;;;20.75;10.18;;;4.30;99.90;;;;;;5035064;28;20021;-52
2021/12/06 07:18:13;;;;;;;22.33;10.10;;;4.30;99.90;;;;;;5035272;28;20029;-49
2021/12/06 07:20:39;;;;;;;25.48;10.68;;;4.40;99.90;;;;;;5034987;28;20017;-49
2021/12/06 07:23:05;;;;;;;27.83;11.07;;;4.40;99.90;;;;;;5034945;28;20105;-51
2021/12/06 07:25:31;;;;;;;24.95;9.95;;;4.40;99.90;;;;;;5035068;28;20085;-51
2021/12/06 07:27:58;;;;;;;20.70;9.45;;;4.40;99.90;;;;;;5035087;28;20105;-52
2021/12/06 07:30:24;;;;;;;15.70;8.43;;;4.50;99.90;;;;;;5033503;28;20114;-51
2021/12/06 07:32:52;;;;;;;15.32;6.90;;;4.50;99.90;;;;;;5034605;28;20025;-49
2021/12/06 07:35:19;;;;;;;14.75;7.18;;;4.50;99.90;;;;;;5034638;28;20384;-57
2021/12/06 07:37:45;;;;;;;12.27;6.82;;;4.40;99.90;;;;;;5033423;28;20048;-55
2021/12/06 07:40:12;;;;;;;14.18;7.20;;;4.50;99.90;;;;;;5033320;28;20068;-50
2021/12/06 07:42:38;;;;;;;11.88;6.85;;;4.50;99.90;;;;;;5033110;28;20112;-50
2021/12/06 07:45:07;;;;;;;15.10;8.23;;;4.60;99.90;;;;;;5033176;28;20060;-51
2021/12/06 07:47:36;;;;;;;21.52;11.15;;;4.60;99.90;;;;;;5034255;28;20048;-51
2021/12/06 07:50:07;;;;;;;40.28;19.85;;;4.50;99.90;;;;;;5033038;28;20029;-55
2021/12/06 07:52:33;;;;;;;33.08;16.85;;;4.50;99.90;;;;;;5032415;28;20021;-55
2021/12/06 07:55:00;;;;;;;21.58;12.60;;;4.40;99.90;;;;;;5033066;28;20021;-54
2021/12/06 07:57:27;;;;;;;25.20;11.77;;;4.50;99.90;;;;;;5032994;28;20017;-54
2021/12/06 07:59:54;;;;;;;30.70;9.68;;;4.50;99.90;;;;;;5034400;28;20104;-56
2021/12/06 08:02:19;;;;;;;18.83;8.25;;;4.60;99.90;;;;;;5034015;28;20112;-51
2021/12/06 08:04:48;;;;;;;27.27;10.98;;;4.60;99.90;;;;;;5032837;28;20053;-54
2021/12/06 08:07:14;;;;;;;25.88;8.88;;;4.70;99.90;;;;;;5033864;28;20057;-54
2021/12/06 08:09:40;;;;;;;23.55;9.25;;;4.60;99.90;;;;;;5032764;28;20060;-54
2021/12/06 08:12:06;;;;;;;24.25;10.38;;;4.70;99.90;;;;;;5032663;28;20053;-53
2021/12/06 08:14:32;;;;;;;19.90;8.95;;;4.80;99.90;;;;;;5032555;28;20029;-54
2021/12/06 08:16:58;;;;;;;19.73;9.95;;;4.90;99.90;;;;;;5033759;28;20071;-49
2021/12/06 08:19:23;;;;;;;25.63;11.38;;;4.70;99.90;;;;;;5033668;28;20021;-55
2021/12/06 08:21:49;;;;;;;18.27;10.00;;;4.60;99.90;;;;;;5032868;28;20022;-51
2021/12/06 08:24:15;;;;;;;20.67;10.15;;;4.50;99.90;;;;;;5032358;28;20041;-54
2021/12/06 08:26:42;;;;;;;24.42;11.32;;;4.50;99.90;;;;;;5032461;28;20022;-51
2021/12/06 08:29:11;;;;;;;18.27;9.52;;;4.60;99.90;;;;;;5032427;28;20030;-53
2021/12/06 08:31:37;;;;;;;19.60;9.80;;;4.80;99.90;;;;;;5032356;28;20025;-53
2021/12/06 08:34:03;;;;;;;20.58;10.27;;;5.00;99.90;;;;;;5032260;28;20018;-54
2021/12/06 08:36:29;;;;;;;25.00;10.65;;;5.00;99.90;;;;;;5032675;28;20021;-51
2021/12/06 08:38:55;;;;;;;23.73;10.98;;;5.10;99.90;;;;;;5032418;28;20026;-51
2021/12/06 08:41:23;;;;;;;22.63;10.00;;;5.20;99.90;;;;;;5032684;28;20026;-50
2021/12/06 08:43:49;;;;;;;18.23;8.85;;;5.20;99.90;;;;;;5032534;28;20034;-52
2021/12/06 08:46:23;;;;;;;13.68;7.68;;;5.30;99.90;;;;;;5033508;28;20029;-54
2021/12/06 08:49:05;;;;;;;14.10;7.60;;;5.50;99.90;;;;;;5033426;28;20033;-49
2021/12/06 08:51:39;;;;;;;16.05;7.28;;;5.60;99.90;;;;;;5033476;28;20071;-50
2021/12/06 08:54:08;;;;;;;17.30;6.43;;;5.60;99.90;;;;;;5033394;28;20018;-54
2021/12/06 08:56:35;;;;;;;13.00;6.88;;;5.80;99.90;;;;;;5033358;28;20072;-55
2021/12/06 08:59:01;;;;;;;12.60;7.18;;;5.90;99.90;;;;;;5033286;28;20031;-49
2021/12/06 09:01:28;;;;;;;14.18;7.20;;;6.00;99.90;;;;;;5032276;28;20025;-54
2021/12/06 09:03:55;;;;;;;12.60;6.63;;;6.10;99.90;;;;;;5032414;28;20026;-49
2021/12/06 09:06:21;;;;;;;18.67;7.05;;;6.20;99.90;;;;;;5032804;28;20025;-50
2021/12/06 09:08:47;;;;;;;12.50;7.30;;;6.20;99.90;;;;;;5033140;28;20028;-47
2021/12/06 09:11:12;;;;;;;15.80;7.40;;;6.30;99.90;;;;;;5032216;28;20024;-50
2021/12/06 09:13:39;;;;;;;13.50;7.07;;;6.70;99.90;;;;;;5032283;28;20472;-51
2021/12/06 09:16:08;;;;;;;14.73;6.97;;;6.70;99.90;;;;;;5031858;28;20018;-52
2021/12/06 09:18:37;;;;;;;15.63;7.22;;;7.00;99.90;;;;;;5032123;28;20076;-53
2021/12/06 09:21:06;;;;;;;15.20;6.93;;;7.60;99.90;;;;;;5031869;28;20047;-50
2021/12/06 09:23:33;;;;;;;11.90;6.60;;;8.10;99.90;;;;;;5031787;28;20041;-55
2021/12/06 09:25:59;;;;;;;12.98;7.00;;;8.40;99.90;;;;;;5032155;28;20030;-55
2021/12/06 09:28:25;;;;;;;15.75;7.25;;;8.60;99.90;;;;;;5031726;28;20039;-53
2021/12/06 09:30:51;;;;;;;13.65;7.28;;;8.60;99.90;;;;;;5035582;28;20447;-53
2021/12/06 09:33:18;;;;;;;15.02;7.72;;;8.70;99.90;;;;;;5035669;28;20076;-48
2021/12/06 09:35:46;;;;;;;14.70;8.25;;;9.10;99.90;;;;;;5036946;28;20152;-49
2021/12/06 09:38:15;;;;;;;12.85;6.88;;;9.70;99.90;;;;;;5035919;28;20112;-47
2021/12/06 09:40:44;;;;;;;12.55;6.40;;;10.00;99.90;;;;;;5036494;28;20024;-52
2021/12/06 09:43:12;;;;;;;11.32;5.80;;;10.20;99.90;;;;;;5037055;28;20049;-51
2021/12/06 09:45:39;;;;;;;11.63;6.60;;;10.30;99.90;;;;;;5036992;28;20029;-50
2021/12/06 09:48:06;;;;;;;9.75;6.07;;;10.40;99.90;;;;;;5035405;28;20032;-49
2021/12/06 09:50:47;;;;;;;12.73;6.60;;;10.20;99.90;;;;;;5036506;28;20037;-51
2021/12/06 09:53:17;;;;;;;10.73;6.47;;;9.80;99.90;;;;;;5035264;28;20021;-49
2021/12/06 09:55:45;;;;;;;13.23;6.68;;;9.60;99.90;;;;;;5035341;28;20033;-49
2021/12/06 09:58:11;;;;;;;17.85;7.80;;;9.30;99.90;;;;;;5035420;28;20052;-50
2021/12/06 10:00:44;;;;;;;13.15;6.75;;;8.90;99.90;;;;;;5035158;28;20025;-53
2021/12/06 10:03:11;;;;;;;16.58;8.50;;;8.50;99.90;;;;;;5035051;28;20030;-49
2021/12/06 10:05:37;;;;;;;13.00;8.23;;;8.50;99.90;;;;;;5035131;28;20167;-55
2021/12/06 10:08:04;;;;;;;15.27;8.40;;;8.40;99.90;;;;;;5035034;28;20036;-50
2021/12/06 10:10:31;;;;;;;15.45;8.23;;;8.40;99.90;;;;;;5034946;28;20032;-50
2021/12/06 10:12:58;;;;;;;20.40;11.10;;;8.50;99.90;;;;;;5034912;28;20018;-52
2021/12/06 10:15:27;;;;;;;18.17;11.13;;;8.70;99.90;;;;;;5036336;28;20025;-49
2021/12/06 10:17:54;;;;;;;21.77;9.55;;;8.80;99.90;;;;;;5036164;28;20056;-49
2021/12/06 10:20:20;;;;;;;19.80;9.68;;;8.70;99.90;;;;;;5034817;28;20029;-50
2021/12/06 10:22:47;;;;;;;16.77;9.23;;;8.80;99.90;;;;;;5036024;28;20022;-51
2021/12/06 10:25:13;;;;;;;15.55;8.48;;;8.90;99.90;;;;;;5036083;28;20030;-47
2021/12/06 10:27:39;;;;;;;20.25;8.30;;;8.70;99.90;;;;;;5034825;28;20026;-49
2021/12/06 10:30:09;;;;;;;20.10;7.93;;;8.70;99.90;;;;;;5034576;28;20032;-48
2021/12/06 10:32:38;;;;;;;13.50;8.18;;;8.70;99.90;;;;;;5035223;28;20044;-48
2021/12/06 10:35:11;;;;;;;15.57;8.63;;;8.70;99.90;;;;;;5036140;28;20459;-51
2021/12/06 10:37:45;;;;;;;16.83;8.45;;;8.70;99.90;;;;;;5034526;28;20025;-49
2021/12/06 10:40:28;;;;;;;18.10;7.63;;;8.60;99.90;;;;;;5035503;28;20017;-55
2021/12/06 10:42:56;;;;;;;13.57;7.82;;;8.40;99.90;;;;;;5034424;28;20079;-51
2021/12/06 10:45:36;;;;;;;20.23;8.02;;;8.20;99.90;;;;;;5035883;28;20395;-52
2021/12/06 10:48:10;;;;;;;15.63;7.63;;;7.90;99.90;;;;;;5036243;28;20022;-52
2021/12/06 10:50:40;;;;;;;14.77;7.60;;;8.00;99.90;;;;;;5035481;28;20022;-53
2021/12/06 10:53:06;;;;;;;15.63;7.28;;;7.80;99.90;;;;;;5034153;28;20048;-48
2021/12/06 10:55:33;;;;;;;13.85;7.53;;;7.70;99.90;;;;;;5035325;28;20018;-54
2021/12/06 10:58:08;;;;;;;15.77;6.97;;;7.80;99.90;;;;;;5035530;28;20014;-58
2021/12/06 11:00:39;;;;;;;13.70;6.32;;;7.80;99.90;;;;;;5035392;28;20025;-56
2021/12/06 11:03:17;;;;;;;15.15;7.60;;;7.70;99.90;;;;;;5035300;28;20026;-60
2021/12/06 11:05:44;;;;;;;13.75;7.55;;;7.60;99.90;;;;;;5034643;28;20357;-57
2021/12/06 11:08:11;;;;;;;16.55;6.43;;;7.70;99.90;;;;;;5034150;28;20103;-58
2021/12/06 11:10:52;;;;;;;12.32;6.78;;;7.90;99.90;;;;;;5034386;28;20026;-59
2021/12/06 11:13:23;;;;;;;9.65;6.40;;;8.00;99.90;;;;;;5033954;28;20022;-59
2021/12/06 11:15:59;;;;;;;10.88;7.20;;;8.00;99.90;;;;;;5035138;28;20107;-58
2021/12/06 11:18:44;;;;;;;11.57;6.00;;;7.60;99.90;;;;;;5033742;28;20032;-58
2021/12/06 11:21:18;;;;;;;11.35;6.72;;;7.30;99.90;;;;;;5035753;28;20073;-54
2021/12/06 11:23:57;;;;;;;15.80;8.52;;;7.10;99.90;;;;;;5035007;28;20155;-58
2021/12/06 11:26:23;;;;;;;12.40;7.25;;;7.00;99.90;;;;;;5034887;28;20025;-55
2021/12/06 11:28:49;;;;;;;14.38;7.50;;;6.90;99.90;;;;;;5033281;28;20028;-57
2021/12/06 11:31:16;;;;;;;15.82;7.05;;;6.80;99.90;;;;;;5034771;28;20029;-58
2021/12/06 11:33:42;;;;;;;17.40;8.10;;;6.70;99.90;;;;;;5034631;28;20088;-57
2021/12/06 11:36:25;;;;;;;13.80;7.13;;;6.60;99.90;;;;;;5034742;28;20018;-53
2021/12/06 11:39:05;;;;;;;23.50;9.85;;;6.50;99.90;;;;;;5034739;28;20029;-58
2021/12/06 11:41:31;;;;;;;17.85;8.43;;;6.40;99.90;;;;;;5034672;28;20104;-58
2021/12/06 11:44:16;;;;;;;14.38;8.55;;;6.40;99.90;;;;;;5033257;28;20124;-56
2021/12/06 11:46:42;;;;;;;14.50;7.72;;;6.50;99.90;;;;;;5034502;28;20033;-57
2021/12/06 11:49:16;;;;;;;14.77;8.38;;;6.50;99.90;;;;;;5033040;28;20056;-56
2021/12/06 11:51:41;;;;;;;14.25;7.53;;;6.50;99.90;;;;;;5033918;28;20021;-56
2021/12/06 11:54:11;;;;;;;13.52;8.02;;;6.60;99.90;;;;;;5033045;28;20024;-57
2021/12/06 11:56:44;;;;;;;12.32;6.75;;;6.70;99.90;;;;;;5034338;28;20024;-55
2021/12/06 11:59:10;;;;;;;17.73;7.70;;;6.90;99.90;;;;;;5033858;28;20112;-57
2021/12/06 12:01:55;;;;;;;17.95;7.63;;;7.00;99.90;;;;;;5034179;28;20105;-53
2021/12/06 12:04:25;;;;;;;14.23;7.28;;;7.00;99.90;;;;;;5032804;28;20083;-53
2021/12/06 12:07:01;;;;;;;20.20;8.65;;;7.20;99.90;;;;;;5032724;28;20040;-55
2021/12/06 12:09:32;;;;;;;11.95;6.18;;;7.20;99.90;;;;;;5033607;28;20025;-54
2021/12/06 12:12:03;;;;;;;11.98;6.68;;;7.30;99.90;;;;;;5033064;28;20091;-54
2021/12/06 12:14:38;;;;;;;16.23;7.27;;;7.40;99.90;;;;;;5033242;28;20029;-58
2021/12/06 12:17:15;;;;;;;16.52;7.57;;;7.40;99.90;;;;;;5034105;28;20067;-56
2021/12/06 12:19:42;;;;;;;16.60;7.53;;;7.50;99.90;;;;;;5032664;28;20056;-55
2021/12/06 12:22:09;;;;;;;17.15;7.28;;;7.70;99.90;;;;;;5033861;28;20100;-51
2021/12/06 12:24:38;;;;;;;12.57;6.78;;;7.80;99.90;;;;;;5032913;28;20039;-55
2021/12/06 12:27:19;;;;;;;12.40;5.85;;;7.80;99.90;;;;;;5034344;28;20100;-53
2021/12/06 12:29:46;;;;;;;14.13;6.60;;;7.70;99.90;;;;;;5033933;28;20021;-56
2021/12/06 12:32:13;;;;;;;10.90;6.45;;;7.60;99.90;;;;;;5033891;28;20045;-54
2021/12/06 12:34:44;;;;;;;11.95;6.40;;;7.70;99.90;;;;;;5033809;28;20021;-53
2021/12/06 12:37:11;;;;;;;9.52;6.03;;;7.70;99.90;;;;;;5032387;28;20021;-56
2021/12/06 12:39:38;;;;;;;13.25;6.63;;;7.60;99.90;;;;;;5032255;28;20088;-53
2021/12/06 12:42:07;;;;;;;14.57;7.03;;;7.70;99.90;;;;;;5032252;28;20095;-53
2021/12/06 12:44:49;;;;;;;13.70;7.53;;;7.40;99.90;;;;;;5032174;28;20029;-56
2021/12/06 12:47:26;;;;;;;21.48;8.75;;;7.20;99.90;;;;;;5032303;28;20030;-55
2021/12/06 12:49:56;;;;;;;16.00;8.48;;;6.90;99.90;;;;;;5033412;28;20021;-54
2021/12/06 12:52:42;;;;;;;14.60;8.70;;;6.40;99.90;;;;;;5031985;28;20068;-54
2021/12/06 12:55:28;;;;;;;16.92;8.63;;;6.20;99.90;;;;;;5033666;28;20021;-52
2021/12/06 12:58:13;;;;;;;21.00;9.35;;;6.10;99.90;;;;;;5033657;28;20026;-57
2021/12/06 13:01:14;;;;;;;18.02;9.75;;;6.10;99.90;;;;;;5032009;28;20036;-57
2021/12/06 13:03:43;;;;;;;21.20;10.35;;;6.10;99.90;;;;;;5030934;28;20029;-57
2021/12/06 13:06:21;;;;;;;25.65;12.02;;;5.90;99.90;;;;;;5033284;28;20018;-56